Mac Andrew Mckinney — WDF8971 — position and weather

sailwx.info

Track history (hours):
 
Tides and Currents Weather Stations Pressure Air Temp Water Temp Dewpoint Dewpoint Depression Visibility Wind Speed Wind Dir Waves Ship Positions

Mac Andrew Mckinney

Owner: McKinney Marine, Inc, Baton Rouge, LA. More information available from US FCC via Universal Licensing System and Coast Guard Vessel Documentation Center.

Last reported at 2018-Jun-18 13:00 UTC. Time now 2018-Jun-18 13:02 UTC.
Position N 29°49' W 092°01'.

Length 21 m; draft 3 m.

Type: Tug. MMSI: 367500460.

Date/timePositionNaut miles runAvg speedWind from/ knotsBaromVisibWave heightAir tempDewpointWater temp
2018-Jun-18 13:00N 29°49' W 092°01'2 3.7
2018-Jun-18 12:30N 29°49' W 092°03'2 3.5
2018-Jun-18 12:00N 29°48' W 092°05'2 3.5
2018-Jun-18 11:30N 29°47' W 092°07'2 3.5
2018-Jun-18 11:01N 29°47' W 092°09'2 3.2
2018-Jun-18 10:31N 29°47' W 092°11'2 3.1
2018-Jun-18 10:00N 29°47' W 092°12'0 0.4
2018-Jun-18 09:29N 29°47' W 092°13'1 1.1
2018-Jun-18 09:00N 29°47' W 092°13'1 1.3
2018-Jun-18 08:30N 29°48' W 092°14'1 1.8
2018-Jun-18 08:00N 29°48' W 092°15'1 1.4
2018-Jun-18 07:30N 29°48' W 092°16'0 0.6
2018-Jun-18 07:00N 29°48' W 092°16'1 1.6
2018-Jun-18 06:30N 29°49' W 092°17'0 0.4
2018-Jun-18 06:00N 29°49' W 092°16'0 0.1
2018-Jun-18 05:30N 29°49' W 092°17'0 0.1
2018-Jun-18 05:00N 29°49' W 092°17'0 0.0
2018-Jun-18 04:30N 29°49' W 092°17'0 0.7
2018-Jun-18 04:00N 29°49' W 092°17'2 3.3
2018-Jun-18 03:31N 29°50' W 092°18'1 2.7
2018-Jun-18 03:00N 29°50' W 092°20'1 3.0
2018-Jun-18 02:30N 29°51' W 092°21'2 3.3
2018-Jun-18 02:00N 29°52' W 092°23'2 3.4
2018-Jun-18 01:30N 29°53' W 092°24'2 3.7
2018-Jun-18 00:59N 29°53' W 092°26'3 3.7
2018-Jun-18 00:17N 29°54' W 092°29'33 3.2
2018-Jun-17 14:04N 29°56' W 093°07'0 3.2
2018-Jun-17 13:54N 29°56' W 093°07'1 3.4
2018-Jun-17 13:30N 29°56' W 093°09'1 2.2
2018-Jun-17 13:00N 29°57' W 093°10'1 2.5
2018-Jun-17 12:30N 29°58' W 093°11'1 2.3
2018-Jun-17 12:00N 29°59' W 093°12'1 2.9
2018-Jun-17 11:30N 29°60' W 093°13'1 2.7
2018-Jun-17 11:00N 30°01' W 093°14'1 2.5
2018-Jun-17 10:30N 30°02' W 093°15'1 2.5
2018-Jun-17 10:00N 30°03' W 093°16'1 2.6
2018-Jun-17 09:30N 30°04' W 093°16'1 2.7
2018-Jun-17 09:00N 30°05' W 093°17'1 1.6
2018-Jun-17 08:30N 30°05' W 093°18'0 1.0
2018-Jun-17 08:00N 30°06' W 093°18'1 1.2
2018-Jun-17 07:30N 30°06' W 093°19'0 0.0
2018-Jun-17 07:00N 30°06' W 093°19'0 0.1
2018-Jun-17 06:30N 30°06' W 093°19'0 0.5
2018-Jun-17 06:00N 30°06' W 093°19'0 0.1
2018-Jun-17 05:30N 30°06' W 093°19'0 0.0
2018-Jun-17 05:00N 30°06' W 093°19'0 0.2
2018-Jun-17 04:30N 30°06' W 093°19'1 1.8
2018-Jun-17 04:00N 30°06' W 093°18'1 1.5
2018-Jun-17 03:30N 30°05' W 093°17'1 1.5
2018-Jun-17 03:00N 30°05' W 093°17'0 0.0
2018-Jun-17 02:30N 30°05' W 093°17'0 0.0
2018-Jun-17 02:00N 30°05' W 093°17'0 0.0
2018-Jun-17 01:30N 30°05' W 093°17'0 0.0
2018-Jun-17 01:00N 30°05' W 093°17'0 0.0
2018-Jun-17 00:30N 30°05' W 093°17'0 0.0
2018-Jun-17 00:00N 30°05' W 093°17'0 0.1
2018-Jun-16 23:30N 30°05' W 093°17'0 0.1
2018-Jun-16 23:00N 30°05' W 093°17'0 0.0
2018-Jun-16 22:30N 30°05' W 093°17'0 0.0
2018-Jun-16 22:00N 30°05' W 093°17'0 0.3
2018-Jun-16 21:30N 30°05' W 093°17'1 1.1
2018-Jun-16 21:00N 30°04' W 093°16'0 0.8
2018-Jun-16 20:30N 30°04' W 093°16'1 1.0
2018-Jun-16 20:00N 30°03' W 093°16'1 1.6
2018-Jun-16 19:30N 30°03' W 093°16'2 3.0
2018-Jun-16 19:00N 30°02' W 093°14'2 3.9
2018-Jun-16 18:30N 29°60' W 093°13'1 1.7
2018-Jun-16 18:00N 29°59' W 093°13'0 0.0
2018-Jun-16 17:30N 29°59' W 093°13'0 0.0
2018-Jun-16 17:00N 29°59' W 093°13'0 0.0
2018-Jun-16 16:29N 29°59' W 093°13'0 0.0
2018-Jun-16 16:00N 29°59' W 093°13'0 0.2
2018-Jun-16 15:30N 29°59' W 093°13'0 0.1
2018-Jun-16 15:00N 29°59' W 093°13'0 0.0
2018-Jun-16 14:30N 29°59' W 093°13'0 0.0
2018-Jun-16 14:00N 29°59' W 093°13'0 0.1
2018-Jun-16 13:30N 29°59' W 093°12'1 2.2
2018-Jun-16 13:00N 29°58' W 093°12'1 3.0
2018-Jun-16 12:30N 29°57' W 093°11'2 3.4
2018-Jun-16 12:00N 29°56' W 093°09'1 1.4
2018-Jun-16 11:30N 29°56' W 093°08'0 0.4
2018-Jun-16 11:00N 29°56' W 093°08'0 0.2
2018-Jun-16 10:30N 29°56' W 093°08'0 0.1
2018-Jun-16 10:00N 29°56' W 093°08'0 0.0
2018-Jun-16 09:30N 29°56' W 093°08'0 0.0
2018-Jun-16 09:00N 29°56' W 093°08'0 0.0
2018-Jun-16 08:30N 29°56' W 093°08'0 0.0
2018-Jun-16 08:00N 29°56' W 093°08'0 0.0
2018-Jun-16 07:30N 29°56' W 093°08'0 0.0
2018-Jun-16 07:00N 29°56' W 093°08'0 0.0
2018-Jun-16 06:30N 29°56' W 093°08'0 0.0
2018-Jun-16 06:00N 29°56' W 093°08'0 0.0
2018-Jun-16 05:30N 29°56' W 093°08'0 0.0
2018-Jun-16 05:00N 29°56' W 093°08'0 0.0
2018-Jun-16 04:30N 29°56' W 093°08'0 0.0
2018-Jun-16 03:58N 29°56' W 093°08'0 0.0
2018-Jun-16 03:30N 29°56' W 093°08'1 1.1
2018-Jun-16 03:00N 29°56' W 093°07'2 4.1
2018-Jun-16 02:30N 29°56' W 093°05'34 2.8
2018-Jun-15 14:22N 29°53' W 092°26'1 4.2
2018-Jun-15 14:00N 29°53' W 092°24'3 4.0
2018-Jun-15 13:21N 29°51' W 092°22'2 3.6
2018-Jun-15 12:56N 29°51' W 092°21'2 4.2
2018-Jun-15 12:30N 29°50' W 092°18'2 3.4
2018-Jun-15 12:00N 29°49' W 092°17'2 4.2
2018-Jun-15 11:30N 29°48' W 092°15'2 3.2
2018-Jun-15 11:00N 29°48' W 092°13'1 2.1
2018-Jun-15 10:30N 29°47' W 092°12'2 3.3
2018-Jun-15 09:59N 29°47' W 092°10'2 3.9
2018-Jun-15 09:30N 29°47' W 092°08'2 4.1
2018-Jun-15 09:00N 29°48' W 092°06'2 4.1
2018-Jun-15 08:30N 29°48' W 092°04'2 3.9
2018-Jun-15 08:00N 29°49' W 092°02'2 3.8
2018-Jun-15 07:30N 29°50' W 091°60'2 4.0
2018-Jun-15 07:00N 29°50' W 091°57'7 3.8
2018-Jun-15 05:14N 29°50' W 091°50'  
2018-Jun-12 08:23N 29°49' W 091°50'6 3.9
2018-Jun-12 06:48N 29°51' W 091°57'1 3.7
2018-Jun-12 06:29N 29°50' W 091°58'2 4.4
2018-Jun-12 06:00N 29°50' W 092°00'2 4.3
2018-Jun-12 05:31N 29°49' W 092°03'2 4.1
2018-Jun-12 05:00N 29°48' W 092°05'2 4.0
2018-Jun-12 04:30N 29°47' W 092°07'2 4.2
2018-Jun-12 04:01N 29°47' W 092°09'2 3.7
2018-Jun-12 03:30N 29°47' W 092°11'1 2.3
2018-Jun-12 03:00N 29°47' W 092°13'2 3.4
2018-Jun-12 02:30N 29°48' W 092°14'2 4.1
2018-Jun-12 02:00N 29°49' W 092°17'2 3.9
2018-Jun-12 01:31N 29°50' W 092°18'2 3.9
2018-Jun-12 01:01N 29°51' W 092°20'2 3.5
2018-Jun-12 00:30N 29°52' W 092°22'2 3.9
2018-Jun-12 00:00N 29°53' W 092°23'36 3.7
2018-Jun-11 14:23N 29°56' W 093°05'2 3.9
2018-Jun-11 13:57N 29°56' W 093°07'2 4.0
2018-Jun-11 13:31N 29°56' W 093°09'2 3.6
2018-Jun-11 13:00N 29°57' W 093°10'2 3.4
2018-Jun-11 12:30N 29°58' W 093°12'2 3.4
2018-Jun-11 12:01N 29°60' W 093°13'1 2.7
2018-Jun-11 11:31N 30°01' W 093°14'2 3.1
2018-Jun-11 11:00N 30°02' W 093°15'1 2.8
2018-Jun-11 10:29N 30°03' W 093°16'2 3.6
2018-Jun-11 10:01N 30°05' W 093°17'1 1.9
2018-Jun-11 09:29N 30°05' W 093°18'0 0.6
2018-Jun-11 09:01N 30°06' W 093°18'0 0.6
2018-Jun-11 08:30N 30°06' W 093°18'0 0.0
2018-Jun-11 08:00N 30°06' W 093°18'0 0.1
2018-Jun-11 07:31N 30°06' W 093°18'0 0.1
2018-Jun-11 07:00N 30°06' W 093°18'0 0.0
2018-Jun-11 06:30N 30°06' W 093°18'0 0.0
2018-Jun-11 06:01N 30°06' W 093°18'0 0.0
2018-Jun-11 05:31N 30°06' W 093°18'0 0.0
2018-Jun-11 05:00N 30°06' W 093°18'0 0.0
2018-Jun-11 04:30N 30°06' W 093°18'0 0.0
2018-Jun-11 04:00N 30°06' W 093°18'0 0.0
2018-Jun-11 03:31N 30°06' W 093°18'0 0.0
2018-Jun-11 03:00N 30°06' W 093°18'0 0.0
2018-Jun-11 02:29N 30°06' W 093°18'0 0.0
2018-Jun-11 02:00N 30°06' W 093°18'0 0.0
2018-Jun-11 01:30N 30°06' W 093°18'0 0.0
2018-Jun-11 01:01N 30°06' W 093°18'0 0.0
2018-Jun-11 00:30N 30°06' W 093°18'0 0.0
2018-Jun-11 00:01N 30°06' W 093°18'0 0.3
2018-Jun-10 23:30N 30°06' W 093°18'2 3.3
2018-Jun-10 23:00N 30°05' W 093°20'2 3.6
2018-Jun-10 22:30N 30°04' W 093°21'1 1.4
2018-Jun-10 22:01N 30°04' W 093°22'0 0.8
2018-Jun-10 21:31N 30°04' W 093°22'2 4.5
2018-Jun-10 21:01N 30°04' W 093°25'2 4.5
2018-Jun-10 20:30N 30°04' W 093°28'2 4.5
2018-Jun-10 20:00N 30°04' W 093°30'2 4.4
2018-Jun-10 19:30N 30°04' W 093°33'2 4.4
2018-Jun-10 18:59N 30°04' W 093°35'2 4.5
2018-Jun-10 18:29N 30°04' W 093°38'2 4.8
2018-Jun-10 17:59N 30°04' W 093°41'2 4.8
2018-Jun-10 17:30N 30°03' W 093°43'2 5.0
2018-Jun-10 17:00N 30°01' W 093°45'3 5.2
2018-Jun-10 16:30N 29°59' W 093°48'3 5.7
2018-Jun-10 16:00N 29°58' W 093°51'0 0.8
2018-Jun-10 15:30N 29°58' W 093°51'2 4.2
2018-Jun-10 15:01N 29°56' W 093°52'3 5.2
2018-Jun-10 14:30N 29°54' W 093°54'5 5.0
2018-Jun-10 13:30N 29°50' W 093°57'2 3.1
2018-Jun-10 13:00N 29°49' W 093°59'0 0.0
2018-Jun-10 12:30N 29°49' W 093°59'0 0.1
2018-Jun-10 12:00N 29°49' W 093°59'0 0.8
2018-Jun-10 11:30N 29°49' W 093°59'1 2.6
2018-Jun-10 11:00N 29°48' W 094°00'2 4.1
2018-Jun-10 10:30N 29°47' W 094°02'2 3.9
2018-Jun-10 10:01N 29°45' W 094°04'2 3.9
2018-Jun-10 09:30N 29°44' W 094°05'2 3.7
2018-Jun-10 09:00N 29°43' W 094°07'2 3.5
2018-Jun-10 08:30N 29°42' W 094°09'2 3.3
2018-Jun-10 08:00N 29°41' W 094°10'2 3.1
2018-Jun-10 07:30N 29°41' W 094°12'2 3.8
2018-Jun-10 07:00N 29°40' W 094°14'2 3.9
2018-Jun-10 06:30N 29°39' W 094°16'2 3.6
2018-Jun-10 06:00N 29°38' W 094°18'2 3.9
2018-Jun-10 05:30N 29°37' W 094°20'2 4.2
2018-Jun-10 04:59N 29°36' W 094°22'2 3.7
2018-Jun-10 04:30N 29°36' W 094°24'2 3.1
2018-Jun-10 04:00N 29°35' W 094°25'1 2.8
2018-Jun-10 03:30N 29°34' W 094°26'25 2.8
2018-Jun-09 18:31N 29°33' W 094°55'1 4.7
2018-Jun-09 18:23N 29°34' W 094°55'2 4.8
2018-Jun-09 18:00N 29°35' W 094°56'2 4.7
2018-Jun-09 17:29N 29°38' W 094°58'3 5.2
2018-Jun-09 16:53N 29°41' W 094°59'2 5.0
2018-Jun-09 16:29N 29°42' W 095°00'4 0.6
2018-Jun-09 08:57N 29°45' W 095°04'4 4.8
2018-Jun-09 08:11N 29°42' W 095°01'2 5.6
2018-Jun-09 07:54N 29°42' W 094°59'2 5.7
2018-Jun-09 07:30N 29°40' W 094°58'3 5.8
2018-Jun-09 07:00N 29°37' W 094°57'3 5.8
2018-Jun-09 06:29N 29°34' W 094°55'3 5.9
2018-Jun-09 05:57N 29°32' W 094°53'3 5.7
2018-Jun-09 05:27N 29°29' W 094°52'3 5.6
2018-Jun-09 05:00N 29°27' W 094°51'3 5.5
2018-Jun-09 04:30N 29°24' W 094°49'3 5.3
2018-Jun-09 04:00N 29°22' W 094°48'2 3.6
2018-Jun-09 03:26N 29°24' W 094°46'22 4.8
2018-Jun-08 22:48N 29°36' W 094°24'8 4.7
2018-Jun-08 21:10N 29°39' W 094°16'1 2.5
2018-Jun-08 20:50N 29°39' W 094°15'2 4.8
2018-Jun-08 20:30N 29°40' W 094°14'3 5.5
2018-Jun-08 20:00N 29°41' W 094°11'2 5.0
2018-Jun-08 19:30N 29°42' W 094°08'3 5.8
2018-Jun-08 19:00N 29°44' W 094°06'3 5.9
2018-Jun-08 18:30N 29°46' W 094°03'3 5.7
2018-Jun-08 18:00N 29°48' W 094°00'2 4.9
2018-Jun-08 17:30N 29°49' W 093°58'3 5.0
2018-Jun-08 17:00N 29°51' W 093°57'3 5.8
2018-Jun-08 16:30N 29°54' W 093°55'3 5.8
2018-Jun-08 16:00N 29°56' W 093°52'3 5.4
2018-Jun-08 15:30N 29°58' W 093°51'0 0.3
2018-Jun-08 15:00N 29°58' W 093°51'0 0.3
2018-Jun-08 14:30N 29°58' W 093°51'0 0.1
2018-Jun-08 14:00N 29°58' W 093°51'0 0.4
2018-Jun-08 13:30N 29°58' W 093°51'2 4.1
2018-Jun-08 13:00N 29°59' W 093°49'  
Track history (hours):
 
Tides and Currents Weather Stations Pressure Air Temp Water Temp Dewpoint Dewpoint Depression Visibility Wind Speed Wind Dir Waves Ship Positions

Mac Andrew Mckinney

Owner: McKinney Marine, Inc, Baton Rouge, LA. More information available from US FCC via Universal Licensing System and Coast Guard Vessel Documentation Center.

Last reported at 2018-Jun-18 13:00 UTC. Time now 2018-Jun-18 13:02 UTC.
Position N 29°49' W 092°01'.

Length 21 m; draft 3 m.

Type: Tug. MMSI: 367500460.

Date/timePositionNaut miles runAvg speedWind from/ knotsBaromVisibWave heightAir tempDewpointWater temp
2018-Jun-18 13:00N 29°49' W 092°01'2 3.7
2018-Jun-18 12:30N 29°49' W 092°03'2 3.5
2018-Jun-18 12:00N 29°48' W 092°05'2 3.5
2018-Jun-18 11:30N 29°47' W 092°07'2 3.5
2018-Jun-18 11:01N 29°47' W 092°09'2 3.2
2018-Jun-18 10:31N 29°47' W 092°11'2 3.1
2018-Jun-18 10:00N 29°47' W 092°12'0 0.4
2018-Jun-18 09:29N 29°47' W 092°13'1 1.1
2018-Jun-18 09:00N 29°47' W 092°13'1 1.3
2018-Jun-18 08:30N 29°48' W 092°14'1 1.8
2018-Jun-18 08:00N 29°48' W 092°15'1 1.4
2018-Jun-18 07:30N 29°48' W 092°16'0 0.6
2018-Jun-18 07:00N 29°48' W 092°16'1 1.6
2018-Jun-18 06:30N 29°49' W 092°17'0 0.4
2018-Jun-18 06:00N 29°49' W 092°16'0 0.1
2018-Jun-18 05:30N 29°49' W 092°17'0 0.1
2018-Jun-18 05:00N 29°49' W 092°17'0 0.0
2018-Jun-18 04:30N 29°49' W 092°17'0 0.7
2018-Jun-18 04:00N 29°49' W 092°17'2 3.3
2018-Jun-18 03:31N 29°50' W 092°18'1 2.7
2018-Jun-18 03:00N 29°50' W 092°20'1 3.0
2018-Jun-18 02:30N 29°51' W 092°21'2 3.3
2018-Jun-18 02:00N 29°52' W 092°23'2 3.4
2018-Jun-18 01:30N 29°53' W 092°24'2 3.7
2018-Jun-18 00:59N 29°53' W 092°26'3 3.7
2018-Jun-18 00:17N 29°54' W 092°29'33 3.2
2018-Jun-17 14:04N 29°56' W 093°07'0 3.2
2018-Jun-17 13:54N 29°56' W 093°07'1 3.4
2018-Jun-17 13:30N 29°56' W 093°09'1 2.2
2018-Jun-17 13:00N 29°57' W 093°10'1 2.5
2018-Jun-17 12:30N 29°58' W 093°11'1 2.3
2018-Jun-17 12:00N 29°59' W 093°12'1 2.9
2018-Jun-17 11:30N 29°60' W 093°13'1 2.7
2018-Jun-17 11:00N 30°01' W 093°14'1 2.5
2018-Jun-17 10:30N 30°02' W 093°15'1 2.5
2018-Jun-17 10:00N 30°03' W 093°16'1 2.6
2018-Jun-17 09:30N 30°04' W 093°16'1 2.7
2018-Jun-17 09:00N 30°05' W 093°17'1 1.6
2018-Jun-17 08:30N 30°05' W 093°18'0 1.0
2018-Jun-17 08:00N 30°06' W 093°18'1 1.2
2018-Jun-17 07:30N 30°06' W 093°19'0 0.0
2018-Jun-17 07:00N 30°06' W 093°19'0 0.1
2018-Jun-17 06:30N 30°06' W 093°19'0 0.5
2018-Jun-17 06:00N 30°06' W 093°19'0 0.1
2018-Jun-17 05:30N 30°06' W 093°19'0 0.0
2018-Jun-17 05:00N 30°06' W 093°19'0 0.2
2018-Jun-17 04:30N 30°06' W 093°19'1 1.8
2018-Jun-17 04:00N 30°06' W 093°18'1 1.5
2018-Jun-17 03:30N 30°05' W 093°17'1 1.5
2018-Jun-17 03:00N 30°05' W 093°17'0 0.0
2018-Jun-17 02:30N 30°05' W 093°17'0 0.0
2018-Jun-17 02:00N 30°05' W 093°17'0 0.0
2018-Jun-17 01:30N 30°05' W 093°17'0 0.0
2018-Jun-17 01:00N 30°05' W 093°17'0 0.0
2018-Jun-17 00:30N 30°05' W 093°17'0 0.0
2018-Jun-17 00:00N 30°05' W 093°17'0 0.1
2018-Jun-16 23:30N 30°05' W 093°17'0 0.1
2018-Jun-16 23:00N 30°05' W 093°17'0 0.0
2018-Jun-16 22:30N 30°05' W 093°17'0 0.0
2018-Jun-16 22:00N 30°05' W 093°17'0 0.3
2018-Jun-16 21:30N 30°05' W 093°17'1 1.1
2018-Jun-16 21:00N 30°04' W 093°16'0 0.8
2018-Jun-16 20:30N 30°04' W 093°16'1 1.0
2018-Jun-16 20:00N 30°03' W 093°16'1 1.6
2018-Jun-16 19:30N 30°03' W 093°16'2 3.0
2018-Jun-16 19:00N 30°02' W 093°14'2 3.9
2018-Jun-16 18:30N 29°60' W 093°13'1 1.7
2018-Jun-16 18:00N 29°59' W 093°13'0 0.0
2018-Jun-16 17:30N 29°59' W 093°13'0 0.0
2018-Jun-16 17:00N 29°59' W 093°13'0 0.0
2018-Jun-16 16:29N 29°59' W 093°13'0 0.0
2018-Jun-16 16:00N 29°59' W 093°13'0 0.2
2018-Jun-16 15:30N 29°59' W 093°13'0 0.1
2018-Jun-16 15:00N 29°59' W 093°13'0 0.0
2018-Jun-16 14:30N 29°59' W 093°13'0 0.0
2018-Jun-16 14:00N 29°59' W 093°13'0 0.1
2018-Jun-16 13:30N 29°59' W 093°12'1 2.2
2018-Jun-16 13:00N 29°58' W 093°12'1 3.0
2018-Jun-16 12:30N 29°57' W 093°11'2 3.4
2018-Jun-16 12:00N 29°56' W 093°09'1 1.4
2018-Jun-16 11:30N 29°56' W 093°08'0 0.4
2018-Jun-16 11:00N 29°56' W 093°08'0 0.2
2018-Jun-16 10:30N 29°56' W 093°08'0 0.1
2018-Jun-16 10:00N 29°56' W 093°08'0 0.0
2018-Jun-16 09:30N 29°56' W 093°08'0 0.0
2018-Jun-16 09:00N 29°56' W 093°08'0 0.0
2018-Jun-16 08:30N 29°56' W 093°08'0 0.0
2018-Jun-16 08:00N 29°56' W 093°08'0 0.0
2018-Jun-16 07:30N 29°56' W 093°08'0 0.0
2018-Jun-16 07:00N 29°56' W 093°08'0 0.0
2018-Jun-16 06:30N 29°56' W 093°08'0 0.0
2018-Jun-16 06:00N 29°56' W 093°08'0 0.0
2018-Jun-16 05:30N 29°56' W 093°08'0 0.0
2018-Jun-16 05:00N 29°56' W 093°08'0 0.0
2018-Jun-16 04:30N 29°56' W 093°08'0 0.0
2018-Jun-16 03:58N 29°56' W 093°08'0 0.0
2018-Jun-16 03:30N 29°56' W 093°08'1 1.1
2018-Jun-16 03:00N 29°56' W 093°07'2 4.1
2018-Jun-16 02:30N 29°56' W 093°05'34 2.8
2018-Jun-15 14:22N 29°53' W 092°26'1 4.2
2018-Jun-15 14:00N 29°53' W 092°24'3 4.0
2018-Jun-15 13:21N 29°51' W 092°22'2 3.6
2018-Jun-15 12:56N 29°51' W 092°21'2 4.2
2018-Jun-15 12:30N 29°50' W 092°18'2 3.4
2018-Jun-15 12:00N 29°49' W 092°17'2 4.2
2018-Jun-15 11:30N 29°48' W 092°15'2 3.2
2018-Jun-15 11:00N 29°48' W 092°13'1 2.1
2018-Jun-15 10:30N 29°47' W 092°12'2 3.3
2018-Jun-15 09:59N 29°47' W 092°10'2 3.9
2018-Jun-15 09:30N 29°47' W 092°08'2 4.1
2018-Jun-15 09:00N 29°48' W 092°06'2 4.1
2018-Jun-15 08:30N 29°48' W 092°04'2 3.9
2018-Jun-15 08:00N 29°49' W 092°02'2 3.8
2018-Jun-15 07:30N 29°50' W 091°60'2 4.0
2018-Jun-15 07:00N 29°50' W 091°57'7 3.8
2018-Jun-15 05:14N 29°50' W 091°50'  
2018-Jun-12 08:23N 29°49' W 091°50'6 3.9
2018-Jun-12 06:48N 29°51' W 091°57'1 3.7
2018-Jun-12 06:29N 29°50' W 091°58'2 4.4
2018-Jun-12 06:00N 29°50' W 092°00'2 4.3
2018-Jun-12 05:31N 29°49' W 092°03'2 4.1
2018-Jun-12 05:00N 29°48' W 092°05'2 4.0
2018-Jun-12 04:30N 29°47' W 092°07'2 4.2
2018-Jun-12 04:01N 29°47' W 092°09'2 3.7
2018-Jun-12 03:30N 29°47' W 092°11'1 2.3
2018-Jun-12 03:00N 29°47' W 092°13'2 3.4
2018-Jun-12 02:30N 29°48' W 092°14'2 4.1
2018-Jun-12 02:00N 29°49' W 092°17'2 3.9
2018-Jun-12 01:31N 29°50' W 092°18'2 3.9
2018-Jun-12 01:01N 29°51' W 092°20'2 3.5
2018-Jun-12 00:30N 29°52' W 092°22'2 3.9
2018-Jun-12 00:00N 29°53' W 092°23'36 3.7
2018-Jun-11 14:23N 29°56' W 093°05'2 3.9
2018-Jun-11 13:57N 29°56' W 093°07'2 4.0
2018-Jun-11 13:31N 29°56' W 093°09'2 3.6
2018-Jun-11 13:00N 29°57' W 093°10'2 3.4
2018-Jun-11 12:30N 29°58' W 093°12'2 3.4
2018-Jun-11 12:01N 29°60' W 093°13'1 2.7
2018-Jun-11 11:31N 30°01' W 093°14'2 3.1
2018-Jun-11 11:00N 30°02' W 093°15'1 2.8
2018-Jun-11 10:29N 30°03' W 093°16'2 3.6
2018-Jun-11 10:01N 30°05' W 093°17'1 1.9
2018-Jun-11 09:29N 30°05' W 093°18'0 0.6
2018-Jun-11 09:01N 30°06' W 093°18'0 0.6
2018-Jun-11 08:30N 30°06' W 093°18'0 0.0
2018-Jun-11 08:00N 30°06' W 093°18'0 0.1
2018-Jun-11 07:31N 30°06' W 093°18'0 0.1
2018-Jun-11 07:00N 30°06' W 093°18'0 0.0
2018-Jun-11 06:30N 30°06' W 093°18'0 0.0
2018-Jun-11 06:01N 30°06' W 093°18'0 0.0
2018-Jun-11 05:31N 30°06' W 093°18'0 0.0
2018-Jun-11 05:00N 30°06' W 093°18'0 0.0
2018-Jun-11 04:30N 30°06' W 093°18'0 0.0
2018-Jun-11 04:00N 30°06' W 093°18'0 0.0
2018-Jun-11 03:31N 30°06' W 093°18'0 0.0
2018-Jun-11 03:00N 30°06' W 093°18'0 0.0
2018-Jun-11 02:29N 30°06' W 093°18'0 0.0
2018-Jun-11 02:00N 30°06' W 093°18'0 0.0
2018-Jun-11 01:30N 30°06' W 093°18'0 0.0
2018-Jun-11 01:01N 30°06' W 093°18'0 0.0
2018-Jun-11 00:30N 30°06' W 093°18'0 0.0
2018-Jun-11 00:01N 30°06' W 093°18'0 0.3
2018-Jun-10 23:30N 30°06' W 093°18'2 3.3
2018-Jun-10 23:00N 30°05' W 093°20'2 3.6
2018-Jun-10 22:30N 30°04' W 093°21'1 1.4
2018-Jun-10 22:01N 30°04' W 093°22'0 0.8
2018-Jun-10 21:31N 30°04' W 093°22'2 4.5
2018-Jun-10 21:01N 30°04' W 093°25'2 4.5
2018-Jun-10 20:30N 30°04' W 093°28'2 4.5
2018-Jun-10 20:00N 30°04' W 093°30'2 4.4
2018-Jun-10 19:30N 30°04' W 093°33'2 4.4
2018-Jun-10 18:59N 30°04' W 093°35'2 4.5
2018-Jun-10 18:29N 30°04' W 093°38'2 4.8
2018-Jun-10 17:59N 30°04' W 093°41'2 4.8
2018-Jun-10 17:30N 30°03' W 093°43'2 5.0
2018-Jun-10 17:00N 30°01' W 093°45'3 5.2
2018-Jun-10 16:30N 29°59' W 093°48'3 5.7
2018-Jun-10 16:00N 29°58' W 093°51'0 0.8
2018-Jun-10 15:30N 29°58' W 093°51'2 4.2
2018-Jun-10 15:01N 29°56' W 093°52'3 5.2
2018-Jun-10 14:30N 29°54' W 093°54'5 5.0
2018-Jun-10 13:30N 29°50' W 093°57'2 3.1
2018-Jun-10 13:00N 29°49' W 093°59'0 0.0
2018-Jun-10 12:30N 29°49' W 093°59'0 0.1
2018-Jun-10 12:00N 29°49' W 093°59'0 0.8
2018-Jun-10 11:30N 29°49' W 093°59'1 2.6
2018-Jun-10 11:00N 29°48' W 094°00'2 4.1
2018-Jun-10 10:30N 29°47' W 094°02'2 3.9
2018-Jun-10 10:01N 29°45' W 094°04'2 3.9
2018-Jun-10 09:30N 29°44' W 094°05'2 3.7
2018-Jun-10 09:00N 29°43' W 094°07'2 3.5
2018-Jun-10 08:30N 29°42' W 094°09'2 3.3
2018-Jun-10 08:00N 29°41' W 094°10'2 3.1
2018-Jun-10 07:30N 29°41' W 094°12'2 3.8
2018-Jun-10 07:00N 29°40' W 094°14'2 3.9
2018-Jun-10 06:30N 29°39' W 094°16'2 3.6
2018-Jun-10 06:00N 29°38' W 094°18'2 3.9
2018-Jun-10 05:30N 29°37' W 094°20'2 4.2
2018-Jun-10 04:59N 29°36' W 094°22'2 3.7
2018-Jun-10 04:30N 29°36' W 094°24'2 3.1
2018-Jun-10 04:00N 29°35' W 094°25'1 2.8
2018-Jun-10 03:30N 29°34' W 094°26'25 2.8
2018-Jun-09 18:31N 29°33' W 094°55'1 4.7
2018-Jun-09 18:23N 29°34' W 094°55'2 4.8
2018-Jun-09 18:00N 29°35' W 094°56'2 4.7
2018-Jun-09 17:29N 29°38' W 094°58'3 5.2
2018-Jun-09 16:53N 29°41' W 094°59'2 5.0
2018-Jun-09 16:29N 29°42' W 095°00'4 0.6
2018-Jun-09 08:57N 29°45' W 095°04'4 4.8
2018-Jun-09 08:11N 29°42' W 095°01'2 5.6
2018-Jun-09 07:54N 29°42' W 094°59'2 5.7
2018-Jun-09 07:30N 29°40' W 094°58'3 5.8
2018-Jun-09 07:00N 29°37' W 094°57'3 5.8
2018-Jun-09 06:29N 29°34' W 094°55'3 5.9
2018-Jun-09 05:57N 29°32' W 094°53'3 5.7
2018-Jun-09 05:27N 29°29' W 094°52'3 5.6
2018-Jun-09 05:00N 29°27' W 094°51'3 5.5
2018-Jun-09 04:30N 29°24' W 094°49'3 5.3
2018-Jun-09 04:00N 29°22' W 094°48'2 3.6
2018-Jun-09 03:26N 29°24' W 094°46'22 4.8
2018-Jun-08 22:48N 29°36' W 094°24'8 4.7
2018-Jun-08 21:10N 29°39' W 094°16'1 2.5
2018-Jun-08 20:50N 29°39' W 094°15'2 4.8
2018-Jun-08 20:30N 29°40' W 094°14'3 5.5
2018-Jun-08 20:00N 29°41' W 094°11'2 5.0
2018-Jun-08 19:30N 29°42' W 094°08'3 5.8
2018-Jun-08 19:00N 29°44' W 094°06'3 5.9
2018-Jun-08 18:30N 29°46' W 094°03'3 5.7
2018-Jun-08 18:00N 29°48' W 094°00'2 4.9
2018-Jun-08 17:30N 29°49' W 093°58'3 5.0
2018-Jun-08 17:00N 29°51' W 093°57'3 5.8
2018-Jun-08 16:30N 29°54' W 093°55'3 5.8
2018-Jun-08 16:00N 29°56' W 093°52'3 5.4
2018-Jun-08 15:30N 29°58' W 093°51'0 0.3
2018-Jun-08 15:00N 29°58' W 093°51'0 0.3
2018-Jun-08 14:30N 29°58' W 093°51'0 0.1
2018-Jun-08 14:00N 29°58' W 093°51'0 0.4
2018-Jun-08 13:30N 29°58' W 093°51'2 4.1
2018-Jun-08 13:00N 29°59' W 093°49'  

Dump ship's entire track history